Time;durP1;ratioP1;P1;durP2;ratioP2;P2;SDS_P1;SDS_P2;PMS_P1;PMS_P2;Temp;Humidity;BMP_temperature;BMP_pressure;BME280_temperature;BME280_humidity;BME280_pressure;Samples;Min_cycle;Max_cycle;Signal;HPM_P1;HPM_P2
2023/12/22 00:01:22;;;;;;;2.95;0.77;;;;;;;;;;6194140;28;20054;-85
2023/12/22 00:04:24;;;;;;;1.47;0.67;;;;;;;;;;6171845;28;20154;-86
2023/12/22 00:07:26;;;;;;;2.55;0.60;;;;;;;;;;6190003;28;20454;-87
2023/12/22 00:10:28;;;;;;;5.03;1.15;;;;;;;;;;6209452;28;20050;-86
2023/12/22 00:13:30;;;;;;;3.22;0.63;;;;;;;;;;6195563;28;20578;-86
2023/12/22 00:16:37;;;;;;;4.28;0.60;;;;;;;;;;6207977;28;20050;-86
2023/12/22 00:19:39;;;;;;;2.22;0.50;;;;;;;;;;6175476;28;20043;-86
2023/12/22 00:22:40;;;;;;;1.60;0.60;;;;;;;;;;6194313;28;20137;-87
2023/12/22 00:25:42;;;;;;;1.85;0.60;;;;;;;;;;6196494;28;20072;-85
2023/12/22 00:28:44;;;;;;;1.55;0.60;;;;;;;;;;6187353;28;20065;-85
2023/12/22 00:31:46;;;;;;;1.27;0.50;;;;;;;;;;6195579;28;20045;-87
2023/12/22 00:34:48;;;;;;;2.42;0.57;;;;;;;;;;6197064;28;20064;-87
2023/12/22 00:37:49;;;;;;;3.67;0.70;;;;;;;;;;6181882;28;20050;-87
2023/12/22 00:40:52;;;;;;;1.20;0.50;;;;;;;;;;6195694;28;20115;-87
2023/12/22 00:43:54;;;;;;;2.13;0.35;;;;;;;;;;6199414;28;20041;-87
2023/12/22 00:46:55;;;;;;;0.82;0.20;;;;;;;;;;6182811;28;20100;-88
2023/12/22 00:49:57;;;;;;;1.90;0.75;;;;;;;;;;6178974;28;20053;-86
2023/12/22 00:52:59;;;;;;;1.27;0.50;;;;;;;;;;6177458;28;20057;-87
2023/12/22 00:56:02;;;;;;;0.75;0.35;;;;;;;;;;6212536;28;20470;-87
2023/12/22 00:59:04;;;;;;;0.60;0.40;;;;;;;;;;6193573;28;20046;-87
2023/12/22 01:02:13;;;;;;;7.20;0.50;;;;;;;;;;6179797;28;20092;-86
2023/12/22 01:05:14;;;;;;;0.98;0.60;;;;;;;;;;6199265;28;20056;-87
2023/12/22 01:08:16;;;;;;;2.67;0.52;;;;;;;;;;6193505;28;20042;-87
2023/12/22 01:11:18;;;;;;;2.55;0.70;;;;;;;;;;6179180;28;20046;-86
2023/12/22 01:14:20;;;;;;;2.35;0.82;;;;;;;;;;6191482;28;20052;-87
2023/12/22 01:17:22;;;;;;;3.22;0.70;;;;;;;;;;6174582;28;20064;-87
2023/12/22 01:20:23;;;;;;;3.22;0.35;;;;;;;;;;6195670;28;20069;-87
2023/12/22 01:23:25;;;;;;;1.52;0.60;;;;;;;;;;6192152;28;20045;-87
2023/12/22 01:26:27;;;;;;;2.33;0.70;;;;;;;;;;6193496;28;20056;-87
2023/12/22 01:29:30;;;;;;;2.08;0.77;;;;;;;;;;6196619;28;20057;-87
2023/12/22 01:32:34;;;;;;;6.90;0.82;;;;;;;;;;6192923;28;20050;-87
2023/12/22 01:35:36;;;;;;;4.57;0.60;;;;;;;;;;6179040;28;20046;-88
2023/12/22 01:38:38;;;;;;;6.50;0.88;;;;;;;;;;6171181;28;20049;-87
2023/12/22 01:41:39;;;;;;;3.78;0.60;;;;;;;;;;6192472;28;20050;-88
2023/12/22 01:44:41;;;;;;;2.35;0.50;;;;;;;;;;6170008;28;20045;-87
2023/12/22 01:47:45;;;;;;;4.93;0.55;;;;;;;;;;6191045;28;20042;-87
2023/12/22 01:50:47;;;;;;;1.45;0.68;;;;;;;;;;6176773;28;20182;-87
2023/12/22 01:53:49;;;;;;;3.85;1.25;;;;;;;;;;6189426;28;20049;-88
2023/12/22 01:56:50;;;;;;;1.90;0.30;;;;;;;;;;6196342;28;20511;-87
2023/12/22 01:59:52;;;;;;;2.97;0.57;;;;;;;;;;6176479;28;20045;-87
2023/12/22 02:02:54;;;;;;;2.38;0.40;;;;;;;;;;6187947;28;20058;-89
2023/12/22 02:05:56;;;;;;;2.83;0.82;;;;;;;;;;6167118;28;20247;-86
2023/12/22 02:08:58;;;;;;;6.27;0.90;;;;;;;;;;6189128;28;20042;-87
2023/12/22 02:12:00;;;;;;;3.55;0.47;;;;;;;;;;6198422;28;20441;-87
2023/12/22 02:15:02;;;;;;;3.05;0.57;;;;;;;;;;6219760;28;20048;-87
2023/12/22 02:18:12;;;;;;;4.97;0.68;;;;;;;;;;6190964;28;20053;-87
2023/12/22 02:21:14;;;;;;;1.45;0.57;;;;;;;;;;6180632;28;20042;-87
2023/12/22 02:24:15;;;;;;;5.50;0.35;;;;;;;;;;6177348;28;20448;-88
2023/12/22 02:27:36;;;;;;;2.45;0.77;;;;;;;;;;6196130;28;20053;-88
2023/12/22 02:30:46;;;;;;;0.45;0.35;;;;;;;;;;6208340;28;20042;-86
2023/12/22 02:33:52;;;;;;;1.33;0.45;;;;;;;;;;6206380;28;20579;-87
2023/12/22 02:36:54;;;;;;;1.20;0.38;;;;;;;;;;6211108;28;20046;-85
2023/12/22 02:39:57;;;;;;;3.30;0.60;;;;;;;;;;6189684;28;20046;-87
2023/12/22 02:43:01;;;;;;;0.82;0.30;;;;;;;;;;6188642;28;20042;-87
2023/12/22 02:46:03;;;;;;;5.32;0.50;;;;;;;;;;6176816;28;20054;-86
2023/12/22 02:49:05;;;;;;;1.17;0.30;;;;;;;;;;6196608;28;20520;-85
2023/12/22 02:52:06;;;;;;;2.80;0.45;;;;;;;;;;6156883;28;20514;-85
2023/12/22 02:55:09;;;;;;;0.70;0.30;;;;;;;;;;6170518;28;20493;-83
2023/12/22 02:58:10;;;;;;;1.30;0.30;;;;;;;;;;6185874;28;20508;-84
2023/12/22 03:01:12;;;;;;;0.95;0.20;;;;;;;;;;6184283;28;20053;-85
2023/12/22 03:04:14;;;;;;;1.85;0.20;;;;;;;;;;6175040;28;20052;-85
2023/12/22 03:07:17;;;;;;;2.03;0.23;;;;;;;;;;6175308;28;20061;-84
2023/12/22 03:10:20;;;;;;;0.47;0.20;;;;;;;;;;6181805;28;20073;-82
2023/12/22 03:13:23;;;;;;;0.85;0.40;;;;;;;;;;6190445;28;20046;-83
2023/12/22 03:16:25;;;;;;;0.20;0.20;;;;;;;;;;6169789;28;20054;-84
2023/12/22 03:19:26;;;;;;;0.15;0.15;;;;;;;;;;6167672;28;20047;-85
2023/12/22 03:22:28;;;;;;;0.10;0.10;;;;;;;;;;6188522;28;20523;-84
2023/12/22 03:25:30;;;;;;;0.10;0.10;;;;;;;;;;6171485;28;20046;-84
2023/12/22 03:28:33;;;;;;;0.10;0.10;;;;;;;;;;6170820;28;20046;-86
2023/12/22 03:31:35;;;;;;;0.15;0.15;;;;;;;;;;6173457;28;20158;-85
2023/12/22 03:34:37;;;;;;;0.15;0.10;;;;;;;;;;6178054;28;20792;-84
2023/12/22 03:37:38;;;;;;;0.10;0.10;;;;;;;;;;6187151;28;20049;-84
2023/12/22 03:40:40;;;;;;;0.10;0.10;;;;;;;;;;6189321;28;20064;-85
2023/12/22 03:43:42;;;;;;;0.10;0.10;;;;;;;;;;6172327;28;20054;-84
2023/12/22 03:46:43;;;;;;;0.20;0.20;;;;;;;;;;6182951;28;20061;-84
2023/12/22 03:49:45;;;;;;;0.57;0.20;;;;;;;;;;6187143;28;20115;-84
2023/12/22 03:52:49;;;;;;;0.32;0.20;;;;;;;;;;6160910;28;20048;-84
2023/12/22 03:55:53;;;;;;;1.98;0.20;;;;;;;;;;6189596;28;20586;-84
2023/12/22 03:58:55;;;;;;;0.82;0.10;;;;;;;;;;6192757;28;20046;-85
2023/12/22 04:02:00;;;;;;;0.20;0.20;;;;;;;;;;6158854;28;20057;-84
2023/12/22 04:05:03;;;;;;;0.82;0.20;;;;;;;;;;6175108;28;20135;-85
2023/12/22 04:08:06;;;;;;;1.00;0.30;;;;;;;;;;6174600;28;20046;-85
2023/12/22 04:11:07;;;;;;;1.23;0.30;;;;;;;;;;6165314;28;20577;-85
2023/12/22 04:14:09;;;;;;;1.33;0.40;;;;;;;;;;6189506;28;20058;-87
2023/12/22 04:17:11;;;;;;;0.20;0.20;;;;;;;;;;6189120;28;20050;-85
2023/12/22 04:20:13;;;;;;;1.20;0.30;;;;;;;;;;6176010;28;20415;-85
2023/12/22 04:23:15;;;;;;;2.05;0.90;;;;;;;;;;6190217;28;20050;-85
2023/12/22 04:26:16;;;;;;;0.30;0.25;;;;;;;;;;6172582;28;20046;-85
2023/12/22 04:29:18;;;;;;;2.67;0.52;;;;;;;;;;6173106;28;20416;-84
2023/12/22 04:32:20;;;;;;;0.20;0.20;;;;;;;;;;6183752;28;20637;-84
2023/12/22 04:35:22;;;;;;;3.05;0.20;;;;;;;;;;6202221;28;20427;-85
2023/12/22 04:38:23;;;;;;;0.63;0.30;;;;;;;;;;6170083;28;20076;-85
2023/12/22 04:41:25;;;;;;;0.93;0.20;;;;;;;;;;6177456;28;20046;-86
2023/12/22 04:44:27;;;;;;;0.77;0.30;;;;;;;;;;6161257;28;20054;-84
2023/12/22 04:47:28;;;;;;;0.90;0.30;;;;;;;;;;6152104;28;20065;-84
2023/12/22 04:50:30;;;;;;;0.20;0.20;;;;;;;;;;6168742;28;20050;-85
2023/12/22 04:53:32;;;;;;;0.20;0.17;;;;;;;;;;6180423;28;20157;-84
2023/12/22 04:56:34;;;;;;;0.73;0.20;;;;;;;;;;6172384;28;20066;-84
2023/12/22 04:59:35;;;;;;;0.57;0.40;;;;;;;;;;6177749;28;20055;-84
2023/12/22 05:02:37;;;;;;;2.28;0.20;;;;;;;;;;6177053;28;20050;-84
2023/12/22 05:05:38;;;;;;;1.00;0.22;;;;;;;;;;6161274;28;20098;-84
2023/12/22 05:08:40;;;;;;;2.42;0.50;;;;;;;;;;6174561;28;20120;-84
2023/12/22 05:11:42;;;;;;;1.75;0.45;;;;;;;;;;6169555;28;20088;-85
2023/12/22 05:14:44;;;;;;;3.50;0.70;;;;;;;;;;6180279;28;20034;-84
2023/12/22 05:17:46;;;;;;;1.10;0.80;;;;;;;;;;6220208;28;20080;-85
2023/12/22 05:20:48;;;;;;;3.75;0.93;;;;;;;;;;6190220;28;20073;-84
2023/12/22 05:23:50;;;;;;;7.63;2.30;;;;;;;;;;6179577;28;20293;-86
2023/12/22 05:26:52;;;;;;;6.55;2.22;;;;;;;;;;6197511;28;20045;-85
2023/12/22 05:29:54;;;;;;;8.70;2.37;;;;;;;;;;6194449;28;20042;-86
2023/12/22 05:32:56;;;;;;;7.55;2.05;;;;;;;;;;6199382;28;20066;-84
2023/12/22 05:35:58;;;;;;;2.83;1.60;;;;;;;;;;6192219;28;20092;-83
2023/12/22 05:38:59;;;;;;;5.05;1.90;;;;;;;;;;6178078;28;20045;-85
2023/12/22 05:42:01;;;;;;;7.97;2.20;;;;;;;;;;6184988;28;20042;-84
2023/12/22 05:45:03;;;;;;;2.20;1.25;;;;;;;;;;6152553;28;20044;-85
2023/12/22 05:48:06;;;;;;;4.82;1.63;;;;;;;;;;6180258;28;20045;-84
2023/12/22 05:51:24;;;;;;;;;;;;;;;;;;6135615;28;20054;-85
2023/12/22 05:54:33;;;;;;;6.95;1.10;;;;;;;;;;6178796;28;20481;-85
2023/12/22 05:57:35;;;;;;;4.38;1.33;;;;;;;;;;6176448;28;20284;-84
2023/12/22 06:00:37;;;;;;;3.40;1.00;;;;;;;;;;6202522;28;20061;-86
2023/12/22 06:03:39;;;;;;;3.03;1.00;;;;;;;;;;6184186;28;20071;-85
2023/12/22 06:06:41;;;;;;;6.78;1.02;;;;;;;;;;6184970;28;20113;-83
2023/12/22 06:09:42;;;;;;;5.05;1.05;;;;;;;;;;6172974;28;20054;-84
2023/12/22 06:12:44;;;;;;;4.82;1.17;;;;;;;;;;6189903;28;20053;-85
2023/12/22 06:15:46;;;;;;;2.67;0.95;;;;;;;;;;6180720;28;20065;-84
2023/12/22 06:18:47;;;;;;;4.10;1.52;;;;;;;;;;6176243;28;20049;-83
2023/12/22 06:21:49;;;;;;;2.97;1.48;;;;;;;;;;6183559;28;20551;-84
2023/12/22 06:24:51;;;;;;;1.50;1.08;;;;;;;;;;6177615;28;20038;-86
2023/12/22 06:27:53;;;;;;;4.68;1.27;;;;;;;;;;6170935;28;20129;-85
2023/12/22 06:30:56;;;;;;;3.93;1.00;;;;;;;;;;6202296;28;20054;-87
2023/12/22 06:34:02;;;;;;;3.63;1.08;;;;;;;;;;6167217;28;20042;-86
2023/12/22 06:37:07;;;;;;;4.90;1.67;;;;;;;;;;6172272;28;20591;-86
2023/12/22 06:40:09;;;;;;;2.33;1.42;;;;;;;;;;6185104;28;20057;-86
2023/12/22 06:43:11;;;;;;;1.67;0.85;;;;;;;;;;6186163;28;20038;-87
2023/12/22 06:46:20;;;;;;;5.95;0.88;;;;;;;;;;6174778;28;20046;-86
2023/12/22 06:49:24;;;;;;;2.25;0.80;;;;;;;;;;6144603;28;20061;-87
2023/12/22 06:52:25;;;;;;;2.53;0.80;;;;;;;;;;6165075;28;20057;-87
2023/12/22 06:55:27;;;;;;;1.20;0.73;;;;;;;;;;6170960;28;20072;-85
2023/12/22 06:58:29;;;;;;;3.85;0.90;;;;;;;;;;6176304;28;20050;-86
2023/12/22 07:01:32;;;;;;;4.00;1.00;;;;;;;;;;6189267;28;20072;-86
2023/12/22 07:04:34;;;;;;;2.53;0.80;;;;;;;;;;6186563;28;20057;-86
2023/12/22 07:07:36;;;;;;;3.25;0.98;;;;;;;;;;6177822;28;20126;-86
2023/12/22 07:10:38;;;;;;;3.30;0.82;;;;;;;;;;6186064;28;20047;-86
2023/12/22 07:13:40;;;;;;;5.88;1.25;;;;;;;;;;6160704;28;20135;-86
2023/12/22 07:16:43;;;;;;;3.70;0.57;;;;;;;;;;6187155;28;20042;-85
2023/12/22 07:19:47;;;;;;;1.13;0.50;;;;;;;;;;6176372;28;20053;-86
2023/12/22 07:22:53;;;;;;;2.97;0.57;;;;;;;;;;6149741;28;20050;-85
2023/12/22 07:25:58;;;;;;;4.25;0.80;;;;;;;;;;6187175;28;20066;-86
2023/12/22 07:29:00;;;;;;;;;;;;;;;;;;6173409;28;20047;-86
2023/12/22 07:32:02;;;;;;;2.30;0.73;;;;;;;;;;6178591;28;19932;-86
2023/12/22 07:35:04;;;;;;;3.40;0.50;;;;;;;;;;6155410;28;20412;-86
2023/12/22 07:38:05;;;;;;;4.43;0.73;;;;;;;;;;6178415;28;20049;-84
2023/12/22 07:41:07;;;;;;;4.45;0.80;;;;;;;;;;6174840;28;20046;-83
2023/12/22 07:44:10;;;;;;;2.47;0.93;;;;;;;;;;6177430;28;20183;-84
2023/12/22 07:47:11;;;;;;;2.50;0.88;;;;;;;;;;6183518;28;20377;-86
2023/12/22 07:50:13;;;;;;;6.90;1.13;;;;;;;;;;6208471;28;20053;-83
2023/12/22 07:53:15;;;;;;;8.05;1.15;;;;;;;;;;6191774;28;20371;-85
2023/12/22 07:56:18;;;;;;;7.40;1.27;;;;;;;;;;6163410;28;20414;-85
2023/12/22 07:59:19;;;;;;;3.13;1.25;;;;;;;;;;6158583;28;20049;-84
2023/12/22 08:02:31;;;;;;;2.50;1.38;;;;;;;;;;6179003;28;20046;-85
2023/12/22 08:05:33;;;;;;;6.20;1.75;;;;;;;;;;6182757;28;20046;-84
2023/12/22 08:08:35;;;;;;;12.90;2.38;;;;;;;;;;6180051;28;20056;-84
2023/12/22 08:11:37;;;;;;;5.10;1.85;;;;;;;;;;6192143;28;20508;-84
2023/12/22 08:14:38;;;;;;;9.80;2.30;;;;;;;;;;6177723;28;20037;-86
2023/12/22 08:17:47;;;;;;;12.88;2.20;;;;;;;;;;6185556;28;20046;-85
2023/12/22 08:20:50;;;;;;;12.68;1.80;;;;;;;;;;6189114;28;20049;-83
2023/12/22 08:23:52;;;;;;;12.15;2.55;;;;;;;;;;6199529;28;20505;-84
2023/12/22 08:26:57;;;;;;;11.98;2.08;;;;;;;;;;6196930;28;20405;-83
2023/12/22 08:29:58;;;;;;;9.20;2.55;;;;;;;;;;6203316;28;20050;-85
2023/12/22 08:33:01;;;;;;;9.65;2.47;;;;;;;;;;6189228;28;20508;-85
2023/12/22 08:36:03;;;;;;;7.22;2.35;;;;;;;;;;6194076;28;20050;-86
2023/12/22 08:39:05;;;;;;;7.32;1.50;;;;;;;;;;6198708;28;20042;-84
2023/12/22 08:42:07;;;;;;;10.35;1.90;;;;;;;;;;6177783;28;20177;-84
2023/12/22 08:45:09;;;;;;;7.43;1.52;;;;;;;;;;6177629;28;20038;-84
2023/12/22 08:48:11;;;;;;;2.55;0.80;;;;;;;;;;6193059;28;20057;-81
2023/12/22 08:51:13;;;;;;;4.93;0.80;;;;;;;;;;6187555;28;20056;-83
2023/12/22 08:54:15;;;;;;;4.55;1.10;;;;;;;;;;6191460;28;20065;-85
2023/12/22 08:57:17;;;;;;;1.65;0.93;;;;;;;;;;6186711;28;20069;-84
2023/12/22 09:00:18;;;;;;;6.28;1.25;;;;;;;;;;6189679;28;20052;-84
2023/12/22 09:03:20;;;;;;;5.07;0.98;;;;;;;;;;6174177;28;20057;-84
2023/12/22 09:06:24;;;;;;;3.08;0.80;;;;;;;;;;6183759;28;20110;-83
2023/12/22 09:09:27;;;;;;;2.92;0.80;;;;;;;;;;6184636;28;20131;-83
2023/12/22 09:12:29;;;;;;;1.38;0.60;;;;;;;;;;6175198;28;20054;-82
2023/12/22 09:15:30;;;;;;;2.33;0.60;;;;;;;;;;6190217;28;20084;-84
2023/12/22 09:18:32;;;;;;;5.10;1.48;;;;;;;;;;6188310;28;20057;-84
2023/12/22 09:21:35;;;;;;;3.47;0.97;;;;;;;;;;6191606;28;20065;-84
2023/12/22 09:24:36;;;;;;;2.67;0.90;;;;;;;;;;6189369;28;20042;-84
2023/12/22 09:27:38;;;;;;;2.15;0.75;;;;;;;;;;6167810;28;20062;-85
2023/12/22 09:30:40;;;;;;;1.15;0.90;;;;;;;;;;6185875;28;20054;-86
2023/12/22 09:33:42;;;;;;;8.88;1.45;;;;;;;;;;6170126;28;20248;-87
2023/12/22 09:36:44;;;;;;;4.55;1.13;;;;;;;;;;6190068;28;20055;-85
2023/12/22 09:39:46;;;;;;;7.60;1.50;;;;;;;;;;6184266;28;20280;-86
2023/12/22 09:42:54;;;;;;;8.15;1.60;;;;;;;;;;6171166;28;20050;-84
2023/12/22 09:45:59;;;;;;;6.53;2.00;;;;;;;;;;6183351;28;20579;-83
2023/12/22 09:49:01;;;;;;;6.03;1.67;;;;;;;;;;6182532;28;20052;-84
2023/12/22 09:52:06;;;;;;;7.72;2.10;;;;;;;;;;6177268;28;20054;-82
2023/12/22 09:55:08;;;;;;;6.43;1.92;;;;;;;;;;6166484;28;20634;-84
2023/12/22 09:58:10;;;;;;;8.20;2.22;;;;;;;;;;6185503;28;20065;-82
2023/12/22 10:01:12;;;;;;;7.07;2.42;;;;;;;;;;6180912;28;20442;-82
2023/12/22 10:04:14;;;;;;;11.15;1.90;;;;;;;;;;6167271;28;20081;-84
2023/12/22 10:07:17;;;;;;;4.10;1.83;;;;;;;;;;6166775;28;20046;-83
2023/12/22 10:10:19;;;;;;;6.90;2.10;;;;;;;;;;6207274;28;20049;-85
2023/12/22 10:13:21;;;;;;;7.13;1.73;;;;;;;;;;6188999;28;20137;-83
2023/12/22 10:16:23;;;;;;;12.00;2.58;;;;;;;;;;6194485;28;20058;-85
2023/12/22 10:19:25;;;;;;;8.38;2.55;;;;;;;;;;6177730;28;20495;-83
2023/12/22 10:22:27;;;;;;;11.20;2.78;;;;;;;;;;6191571;28;20108;-85
2023/12/22 10:25:30;;;;;;;8.18;2.65;;;;;;;;;;6175017;28;20049;-83
2023/12/22 10:28:31;;;;;;;10.63;2.33;;;;;;;;;;6183377;28;20123;-85
2023/12/22 10:31:40;;;;;;;10.13;2.08;;;;;;;;;;6189121;28;20038;-84
2023/12/22 10:34:42;;;;;;;7.30;2.17;;;;;;;;;;6190021;28;20055;-84
2023/12/22 10:37:45;;;;;;;7.20;2.40;;;;;;;;;;6172218;28;20077;-83
2023/12/22 10:40:48;;;;;;;9.32;2.35;;;;;;;;;;6184651;28;20688;-82
2023/12/22 10:43:50;;;;;;;5.45;2.05;;;;;;;;;;6189486;28;20055;-83
2023/12/22 10:46:54;;;;;;;6.97;2.57;;;;;;;;;;6204059;28;20050;-81
2023/12/22 10:49:56;;;;;;;8.38;2.45;;;;;;;;;;6174215;28;20072;-84
2023/12/22 10:52:58;;;;;;;6.70;1.67;;;;;;;;;;6187123;28;20061;-83
2023/12/22 10:56:00;;;;;;;7.25;1.95;;;;;;;;;;6155660;28;20050;-83
2023/12/22 10:59:03;;;;;;;15.65;2.10;;;;;;;;;;6183056;28;20476;-82
2023/12/22 11:02:07;;;;;;;7.68;1.55;;;;;;;;;;6163791;28;20057;-84
2023/12/22 11:05:12;;;;;;;5.07;1.40;;;;;;;;;;6154088;28;20042;-83
2023/12/22 11:08:17;;;;;;;4.75;1.83;;;;;;;;;;6176895;28;20107;-84
2023/12/22 11:11:34;;;;;;;5.65;1.52;;;;;;;;;;6189067;28;20050;-82
2023/12/22 11:14:37;;;;;;;7.40;1.77;;;;;;;;;;6177819;28;20057;-81
2023/12/22 11:17:41;;;;;;;4.78;1.27;;;;;;;;;;6157902;28;22074;-84
2023/12/22 11:20:44;;;;;;;4.72;1.77;;;;;;;;;;6179004;28;20084;-83
2023/12/22 11:23:47;;;;;;;4.00;0.95;;;;;;;;;;6188297;28;20042;-84
2023/12/22 11:26:50;;;;;;;7.45;0.93;;;;;;;;;;6188798;28;20065;-82
2023/12/22 11:29:53;;;;;;;2.85;1.00;;;;;;;;;;6190270;28;20050;-84
2023/12/22 11:32:57;;;;;;;3.03;1.00;;;;;;;;;;6167336;28;20049;-83
2023/12/22 11:35:59;;;;;;;3.88;0.90;;;;;;;;;;6188019;28;20132;-87
2023/12/22 11:39:01;;;;;;;3.05;1.10;;;;;;;;;;6191894;28;20050;-83
2023/12/22 11:42:05;;;;;;;1.40;0.80;;;;;;;;;;6176248;28;20228;-84
2023/12/22 11:45:10;;;;;;;4.68;1.00;;;;;;;;;;6202902;28;20056;-82
2023/12/22 11:48:12;;;;;;;2.22;1.17;;;;;;;;;;6200976;28;20509;-82
2023/12/22 11:51:15;;;;;;;1.42;0.68;;;;;;;;;;6200877;28;20047;-83
2023/12/22 11:54:46;;;;;;;2.70;1.33;;;;;;;;;;6186687;28;20577;-84
2023/12/22 11:57:48;;;;;;;1.25;0.80;;;;;;;;;;6180066;28;20041;-83
2023/12/22 12:00:52;;;;;;;1.85;0.80;;;;;;;;;;6163550;28;20136;-85
2023/12/22 12:03:59;;;;;;;1.55;0.73;;;;;;;;;;6187171;28;20049;-83
2023/12/22 12:07:36;;;;;;;1.02;0.70;;;;;;;;;;6174364;28;20124;-86
2023/12/22 12:10:54;;;;;;;1.80;0.70;;;;;;;;;;6174207;28;20053;-83
2023/12/22 12:14:11;;;;;;;1.05;0.70;;;;;;;;;;6173732;28;20074;-83
2023/12/22 12:17:16;;;;;;;1.10;0.40;;;;;;;;;;6187491;28;20497;-83
2023/12/22 12:20:17;;;;;;;0.70;0.70;;;;;;;;;;6171119;28;20053;-85
2023/12/22 12:23:20;;;;;;;2.35;0.52;;;;;;;;;;6188348;28;20061;-85
2023/12/22 12:26:23;;;;;;;0.75;0.60;;;;;;;;;;6172687;28;20053;-84
2023/12/22 12:29:25;;;;;;;1.85;0.82;;;;;;;;;;6183515;28;20053;-86
2023/12/22 12:32:27;;;;;;;2.97;1.23;;;;;;;;;;6204412;28;20054;-85
2023/12/22 12:35:29;;;;;;;2.45;0.85;;;;;;;;;;6187913;28;20159;-85
2023/12/22 12:38:59;;;;;;;1.08;0.93;;;;;;;;;;6184059;28;20042;-85
2023/12/22 12:42:04;;;;;;;1.70;0.90;;;;;;;;;;6192544;28;20046;-86
2023/12/22 12:45:08;;;;;;;1.48;0.80;;;;;;;;;;6195030;28;20061;-85
2023/12/22 12:48:09;;;;;;;1.88;1.30;;;;;;;;;;6186778;28;20368;-84
2023/12/22 12:51:12;;;;;;;1.70;1.05;;;;;;;;;;6169720;28;20053;-87
2023/12/22 12:54:14;;;;;;;4.88;2.53;;;;;;;;;;6188749;28;20664;-86
2023/12/22 12:57:16;;;;;;;2.83;1.45;;;;;;;;;;6165455;28;20512;-88
2023/12/22 13:00:30;;;;;;;2.42;1.20;;;;;;;;;;6165313;28;20050;-88
2023/12/22 13:03:32;;;;;;;1.35;0.70;;;;;;;;;;6192326;28;20054;-88
2023/12/22 13:06:35;;;;;;;3.07;1.17;;;;;;;;;;6175249;28;20054;-86
2023/12/22 13:09:37;;;;;;;1.60;1.10;;;;;;;;;;6168426;28;20046;-87
2023/12/22 13:12:38;;;;;;;3.13;1.30;;;;;;;;;;6176462;28;20046;-88
2023/12/22 13:15:41;;;;;;;2.75;1.17;;;;;;;;;;6182123;28;20049;-87
2023/12/22 13:18:43;;;;;;;2.40;1.25;;;;;;;;;;6176454;28;20157;-87
2023/12/22 13:21:45;;;;;;;4.45;1.63;;;;;;;;;;6206742;28;20049;-86
2023/12/22 13:24:56;;;;;;;1.00;0.90;;;;;;;;;;6185418;28;20050;-88
2023/12/22 13:27:58;;;;;;;4.97;2.40;;;;;;;;;;6182781;28;20049;-87
2023/12/22 13:31:00;;;;;;;6.78;2.10;;;;;;;;;;6170626;28;20054;-86
2023/12/22 13:34:01;;;;;;;3.35;1.85;;;;;;;;;;6182191;28;20041;-85
2023/12/22 13:37:04;;;;;;;2.58;1.45;;;;;;;;;;6170756;28;20059;-86
2023/12/22 13:40:09;;;;;;;2.90;1.42;;;;;;;;;;6192691;28;20046;-87
2023/12/22 13:43:11;;;;;;;2.95;1.55;;;;;;;;;;6185520;28;20049;-86
2023/12/22 13:46:16;;;;;;;7.28;2.58;;;;;;;;;;6183423;28;20050;-85
2023/12/22 13:49:18;;;;;;;1.83;1.40;;;;;;;;;;6201466;28;20050;-87
2023/12/22 13:52:27;;;;;;;5.13;2.00;;;;;;;;;;6180918;28;20076;-87
2023/12/22 13:55:35;;;;;;;2.45;1.60;;;;;;;;;;6188986;28;20050;-87
2023/12/22 13:58:44;;;;;;;2.13;1.35;;;;;;;;;;6176781;28;20049;-86
2023/12/22 14:01:46;;;;;;;2.10;1.38;;;;;;;;;;6165254;28;20052;-87
2023/12/22 14:04:51;;;;;;;3.05;1.60;;;;;;;;;;6203701;28;20053;-85
2023/12/22 14:07:53;;;;;;;1.92;1.52;;;;;;;;;;6204336;28;20111;-86
2023/12/22 14:10:56;;;;;;;2.63;1.60;;;;;;;;;;6187583;28;20056;-86
2023/12/22 14:13:57;;;;;;;1.98;1.23;;;;;;;;;;6172068;28;20050;-86
2023/12/22 14:16:59;;;;;;;1.70;1.20;;;;;;;;;;6159469;28;20053;-86
2023/12/22 14:20:01;;;;;;;1.38;1.27;;;;;;;;;;6191965;28;20050;-86
2023/12/22 14:23:03;;;;;;;1.83;1.33;;;;;;;;;;6171994;28;20516;-86
2023/12/22 14:26:05;;;;;;;3.03;1.42;;;;;;;;;;6200994;28;20205;-86
2023/12/22 14:29:07;;;;;;;3.35;1.25;;;;;;;;;;6163688;28;20042;-87
2023/12/22 14:32:12;;;;;;;4.82;1.58;;;;;;;;;;6197040;28;20056;-86
2023/12/22 14:35:15;;;;;;;;;;;;;;;;;;6222021;28;20054;-85
2023/12/22 14:38:16;;;;;;;3.58;1.35;;;;;;;;;;6183646;28;19984;-86
2023/12/22 14:41:18;;;;;;;2.17;1.10;;;;;;;;;;6171395;28;20042;-86
2023/12/22 14:44:20;;;;;;;1.98;1.20;;;;;;;;;;6189937;28;20054;-86
2023/12/22 14:47:21;;;;;;;3.75;1.50;;;;;;;;;;6187866;28;20049;-85
2023/12/22 14:50:23;;;;;;;2.50;1.20;;;;;;;;;;6180415;28;20064;-86
2023/12/22 14:53:25;;;;;;;2.60;0.70;;;;;;;;;;6160634;28;20049;-87
2023/12/22 14:56:27;;;;;;;0.40;0.40;;;;;;;;;;6185527;28;20052;-86
2023/12/22 14:59:29;;;;;;;1.58;0.77;;;;;;;;;;6189866;28;20046;-82
2023/12/22 15:02:31;;;;;;;1.40;1.05;;;;;;;;;;6204973;28;20054;-88
2023/12/22 15:05:32;;;;;;;1.58;0.80;;;;;;;;;;6185302;28;20431;-85
2023/12/22 15:08:38;;;;;;;1.67;1.05;;;;;;;;;;6171525;28;20050;-85
2023/12/22 15:11:44;;;;;;;2.08;1.10;;;;;;;;;;6188679;28;20255;-85
2023/12/22 15:14:46;;;;;;;3.58;1.17;;;;;;;;;;6186061;28;20050;-85
2023/12/22 15:17:49;;;;;;;6.07;1.33;;;;;;;;;;6186222;28;20053;-83
2023/12/22 15:20:51;;;;;;;1.60;1.40;;;;;;;;;;6186189;28;20050;-84
2023/12/22 15:23:53;;;;;;;2.45;1.60;;;;;;;;;;6161722;28;20046;-84
2023/12/22 15:26:55;;;;;;;2.08;1.17;;;;;;;;;;6188414;28;20049;-83
2023/12/22 15:29:56;;;;;;;6.53;2.95;;;;;;;;;;6174911;28;20341;-84
2023/12/22 15:32:58;;;;;;;2.00;1.30;;;;;;;;;;6180279;28;20050;-82
2023/12/22 15:36:00;;;;;;;3.30;1.50;;;;;;;;;;6178630;28;20057;-81
2023/12/22 15:39:02;;;;;;;0.80;0.80;;;;;;;;;;6202170;28;20079;-81
2023/12/22 15:42:04;;;;;;;2.45;1.15;;;;;;;;;;6176527;28;20128;-80
2023/12/22 15:45:06;;;;;;;1.13;1.02;;;;;;;;;;6187403;28;20428;-81
2023/12/22 15:48:08;;;;;;;0.97;0.80;;;;;;;;;;6190535;28;20057;-82
2023/12/22 15:51:12;;;;;;;1.60;0.82;;;;;;;;;;6173396;28;20135;-81
2023/12/22 15:54:17;;;;;;;2.25;1.00;;;;;;;;;;6189529;28;20575;-83
2023/12/22 15:57:18;;;;;;;1.00;0.80;;;;;;;;;;6175778;28;20064;-82
2023/12/22 16:00:21;;;;;;;4.28;1.40;;;;;;;;;;6185390;28;20476;-83
2023/12/22 16:03:23;;;;;;;4.63;1.13;;;;;;;;;;6187067;28;20057;-83
2023/12/22 16:06:24;;;;;;;2.22;1.00;;;;;;;;;;6192770;28;20053;-82
2023/12/22 16:09:26;;;;;;;2.58;0.95;;;;;;;;;;6177264;28;20485;-83
2023/12/22 16:12:28;;;;;;;3.28;0.90;;;;;;;;;;6172156;28;20065;-83
2023/12/22 16:15:29;;;;;;;1.17;0.90;;;;;;;;;;6202733;28;20539;-83
2023/12/22 16:18:32;;;;;;;1.83;0.93;;;;;;;;;;6173355;28;20455;-83
2023/12/22 16:21:40;;;;;;;2.00;1.30;;;;;;;;;;6192283;28;20154;-83
2023/12/22 16:24:42;;;;;;;1.00;0.90;;;;;;;;;;6206028;28;20054;-82
2023/12/22 16:27:43;;;;;;;1.08;0.70;;;;;;;;;;6189535;28;20123;-83
2023/12/22 16:30:48;;;;;;;1.30;0.70;;;;;;;;;;6192737;28;20052;-82
2023/12/22 16:33:50;;;;;;;0.75;0.50;;;;;;;;;;6183511;28;20056;-82
2023/12/22 16:36:52;;;;;;;0.70;0.50;;;;;;;;;;6190235;28;20054;-82
2023/12/22 16:39:53;;;;;;;0.93;0.40;;;;;;;;;;6185047;28;20046;-82
2023/12/22 16:42:55;;;;;;;1.15;0.50;;;;;;;;;;6172012;28;20061;-84
2023/12/22 16:45:56;;;;;;;1.00;0.57;;;;;;;;;;6185860;28;20509;-83
2023/12/22 16:48:58;;;;;;;3.42;0.70;;;;;;;;;;6212002;28;20123;-84
2023/12/22 16:52:00;;;;;;;1.15;0.60;;;;;;;;;;6189755;28;20064;-84
2023/12/22 16:55:02;;;;;;;5.25;0.80;;;;;;;;;;6175968;28;20046;-84
2023/12/22 16:58:04;;;;;;;1.85;0.70;;;;;;;;;;6182603;28;20417;-84
2023/12/22 17:01:05;;;;;;;2.10;1.05;;;;;;;;;;6169588;28;20060;-83
2023/12/22 17:04:27;;;;;;;1.50;0.70;;;;;;;;;;6176472;28;20050;-82
2023/12/22 17:07:29;;;;;;;4.30;1.00;;;;;;;;;;6185936;28;20079;-81
2023/12/22 17:10:37;;;;;;;1.88;0.70;;;;;;;;;;6210337;28;20045;-82
2023/12/22 17:13:38;;;;;;;3.03;0.90;;;;;;;;;;6206834;28;20061;-82
2023/12/22 17:16:40;;;;;;;3.60;0.98;;;;;;;;;;6187777;28;20685;-82
2023/12/22 17:19:42;;;;;;;3.03;1.13;;;;;;;;;;6178533;28;20129;-82
2023/12/22 17:22:44;;;;;;;2.47;0.90;;;;;;;;;;6195871;28;20050;-81
2023/12/22 17:25:45;;;;;;;1.67;0.90;;;;;;;;;;6172185;28;20061;-82
2023/12/22 17:28:58;;;;;;;1.98;1.00;;;;;;;;;;6185581;28;20067;-83
2023/12/22 17:32:06;;;;;;;1.13;0.65;;;;;;;;;;6194218;28;20178;-83
2023/12/22 17:35:08;;;;;;;0.75;0.75;;;;;;;;;;6190191;28;20130;-82
2023/12/22 17:38:10;;;;;;;1.23;0.75;;;;;;;;;;6174793;28;20220;-80
2023/12/22 17:41:12;;;;;;;1.02;0.70;;;;;;;;;;6172559;28;20041;-81
2023/12/22 17:44:13;;;;;;;2.65;0.68;;;;;;;;;;6178909;28;20053;-82
2023/12/22 17:47:15;;;;;;;1.13;1.00;;;;;;;;;;6180745;28;20046;-81
2023/12/22 17:50:18;;;;;;;2.50;0.80;;;;;;;;;;6166445;28;20053;-80
2023/12/22 17:53:24;;;;;;;1.52;1.15;;;;;;;;;;6166622;28;20041;-80
2023/12/22 17:56:26;;;;;;;1.42;0.80;;;;;;;;;;6179920;28;20050;-80
2023/12/22 17:59:28;;;;;;;1.30;0.90;;;;;;;;;;6172495;28;20184;-82
2023/12/22 18:02:30;;;;;;;1.73;1.00;;;;;;;;;;6174192;28;20416;-83
2023/12/22 18:05:32;;;;;;;3.50;1.10;;;;;;;;;;6208180;28;20053;-81
2023/12/22 18:08:34;;;;;;;5.60;1.13;;;;;;;;;;6163660;28;20516;-81
2023/12/22 18:11:39;;;;;;;1.77;1.00;;;;;;;;;;6164829;28;20054;-82
2023/12/22 18:14:42;;;;;;;3.25;0.98;;;;;;;;;;6191885;28;20270;-83
2023/12/22 18:17:43;;;;;;;5.00;1.30;;;;;;;;;;6161794;28;20050;-83